Aérodrome :
LOGIN :

S'inscrire | Disclaimer

   EN    FR    IT 

 










Légende :    VFR   VFR Marginal   IFR   IFR Intensif   IFR Très Intensif
Visi : 
Plafond : 
>= 8 km
>= 3000ft
5 à 8 km
1000 à 3000 ft
1500m à 5 km
500 à 1000 ft
800 à 1500m
200 à 500 ft
< 800m
< 200 ft
Symboles :   Orages  Brouillard  Fortes neiges  Fortes précipitations  Vent > 20 kt
SIGMETs :   Divers  Orages  Givrage  Turbulence  Onde Orograph.  Cendres Volcan.






- Altitude de l'aérodrome : 242 ft
- Code IATA : DUB


EIDW - Dublin

DERNIER METAR :
  • 261630Z 25009KT 200V290 9999 FEW022 SCT032 BKN180 05/00 Q1005 NOSIG

METARs EXPIRÉS :
  • 261600Z 26011KT 210V290 9999 VCSH FEW018CB SCT041 BKN200 05/00 Q1005 NOSIG
  • 261530Z 25013KT 220V280 9999 VCSH FEW018CB SCT040 BKN200 06/M02 Q1005 NOSIG
  • 261500Z 25009KT 210V280 9999 VCSH FEW018CB SCT040 BKN190 07/M01 Q1005 NOSIG
  • 261430Z 25012G23KT 210V280 9999 FEW024 SCT040 07/M02 Q1006 NOSIG
  • 261400Z 27016KT 9999 FEW022 SCT033 06/M01 Q1006 NOSIG

TAF TAF EIDW
Valide du 26 à 12h jusqu'au 27 à 12h UTC


261100Z 2612/2712 26015KT 9999 FEW013
BECMG 2619/2621 23008KT
TEMPO 2700/2704 3000 -RASN BKN008
BECMG 2702/2704 29011KT



MET'MAP, la Météo Aéronautique d'un coup d'oeil ! - Copyright ORBIFLY Décembre 2007 - Disclaimer

ORBIFLY MET'MAP TEAM :

Programmation & Développement : Alexandra Zaïnal
Sur une idée originale de : Baudouin d'Aumeries
Assistance à la programmation : Marc-Olivier Méhu
Soutien technique & logistique : Manuel Goepfert

Contact : metmap@orbifly.com




SOURCES & CREDITS :

   NOAA